Hlavní strana
METAR-TAF:

METAR-TAF

Letiště :

Växjö, Švédsko

zeměpisná šířka: 56-51N, zeměpisná délka: 014-50E, výška: 199 m

Aktuální stav počasí

Zpráva byla vytvořena před 21 minutami, v 21:50 UTC
Jihovýchodní vítr 4 kt, proměnlivý mezi východním a jižním
Teplota 3°C
Vlhkost vzduchu 100%
Tlak 1004 hPa
Viditelnost 10 km a více

METAR: ESMX 122150Z AUTO 13004KT 100V170 9999 FEW018/// BKN047/// 03/03 Q1004

Čas: 23:11 (22:11 UTC)

Předpověď počasí

Zpráva byla vytvořena před 4 hodinami a 41 minutami, v 17:30 UTC
Předpověď platná od 12 v 18 UTC do 12 v 22 UTC
Jihojihovýchodní vítr 8 kt
Viditelnost 10 km a více
Polojasno ve výšce 2000 ft
Oblačno až skoro zataženo ve výšce 3000 ft

TAF: ESMX 121730Z 1218/1222 16008KT 9999 SCT020 BKN030

Stav a předpovědi počasí z více než 4 000 letišť (zprávy METAR a TAF).

Červené a žluté tečky na mapě představují dostupné meteorologické stanice.

Když kurzor umístíte na tečku, zobrazí se název stanice.

Pak kliknutím zobrazíte stav a předpověď počasí.

Chcete-li změnit mapu, kliknutím na zelené tlačítko se znaménkem +mapu přiblížíte, kliknutím na zelené tlačítko se znaménkem – mapu oddálíte a kliknutím na zelené šipky přejdete na sousední mapy.


METAR-TAF: